Time;durP1;ratioP1;P1;durP2;ratioP2;P2;SDS_P1;SDS_P2;PMS_P1;PMS_P2;Temp;Humidity;BMP_temperature;BMP_pressure;BME280_temperature;BME280_humidity;BME280_pressure;Samples;Min_cycle;Max_cycle;Signal;HPM_P1;HPM_P2
2023/03/15 00:00:52;;;;;;;5.28;2.05;;;2.20;99.90;;;;;;5107072;27;20043;-82
2023/03/15 00:03:18;;;;;;;5.57;2.05;;;2.20;99.90;;;;;;5108211;28;20039;-82
2023/03/15 00:05:46;;;;;;;5.18;2.08;;;2.20;99.90;;;;;;5092242;28;20392;-82
2023/03/15 00:08:12;;;;;;;3.53;2.25;;;2.20;99.90;;;;;;5109789;28;20151;-82
2023/03/15 00:10:49;;;;;;;5.85;1.95;;;2.20;99.90;;;;;;5091579;28;20172;-82
2023/03/15 00:13:16;;;;;;;6.13;2.20;;;2.20;99.90;;;;;;5107438;28;20662;-82
2023/03/15 00:15:50;;;;;;;8.52;2.17;;;2.20;99.90;;;;;;5106829;28;20078;-82
2023/03/15 00:18:17;;;;;;;4.85;2.30;;;2.20;99.90;;;;;;5076567;28;20097;-82
2023/03/15 00:20:43;;;;;;;5.47;2.60;;;2.20;99.90;;;;;;5075622;28;20047;-82
2023/03/15 00:23:09;;;;;;;5.15;2.05;;;2.30;99.90;;;;;;5106496;28;20039;-83
2023/03/15 00:25:35;;;;;;;7.07;2.10;;;2.20;99.90;;;;;;5107992;28;20047;-82
2023/03/15 00:28:03;;;;;;;5.50;1.92;;;2.30;99.90;;;;;;5088481;28;20366;-82
2023/03/15 00:30:29;;;;;;;7.53;2.17;;;2.30;99.90;;;;;;5096884;28;20043;-83
2023/03/15 00:32:55;;;;;;;4.00;1.90;;;2.40;99.90;;;;;;5090524;28;20050;-82
2023/03/15 00:35:22;;;;;;;4.50;1.80;;;2.40;99.90;;;;;;5108193;28;20055;-82
2023/03/15 00:37:53;;;;;;;3.90;1.50;;;2.50;99.90;;;;;;5106935;28;20051;-82
2023/03/15 00:40:23;;;;;;;5.90;1.60;;;2.40;99.90;;;;;;5092131;28;20127;-82
2023/03/15 00:42:49;;;;;;;4.93;1.80;;;2.40;99.90;;;;;;5088489;28;20398;-82
2023/03/15 00:45:19;;;;;;;5.15;1.52;;;2.40;99.90;;;;;;5106877;28;20068;-82
2023/03/15 00:47:51;;;;;;;6.72;1.73;;;2.40;99.90;;;;;;5092597;28;20082;-82
2023/03/15 00:50:17;;;;;;;7.55;1.20;;;2.40;99.90;;;;;;5111022;28;20089;-82
2023/03/15 00:52:45;;;;;;;3.92;1.50;;;2.30;99.90;;;;;;5108424;28;20431;-82
2023/03/15 00:55:13;;;;;;;9.98;1.92;;;2.30;99.90;;;;;;5109952;28;20108;-82
2023/03/15 00:57:40;;;;;;;3.42;1.60;;;2.30;99.90;;;;;;5109377;28;20116;-83
2023/03/15 01:00:23;;;;;;;9.25;1.70;;;2.40;99.90;;;;;;5109109;28;20073;-82
2023/03/15 01:02:49;;;;;;;;;;;2.30;99.90;;;;;;5093002;28;20040;-82
2023/03/15 01:05:18;;;;;;;7.90;1.60;;;2.20;99.90;;;;;;5108772;28;19976;-82
2023/03/15 01:07:46;;;;;;;6.70;1.55;;;2.20;99.90;;;;;;5109174;28;20058;-82
2023/03/15 01:10:13;;;;;;;4.63;1.50;;;2.20;99.90;;;;;;5109901;28;20044;-82
2023/03/15 01:12:39;;;;;;;6.32;1.80;;;2.20;99.90;;;;;;5108647;28;20043;-82
2023/03/15 01:15:07;;;;;;;2.65;1.33;;;2.30;99.90;;;;;;5102928;28;20105;-82
2023/03/15 01:17:32;;;;;;;5.78;1.75;;;2.30;99.90;;;;;;5080655;28;20089;-82
2023/03/15 01:19:59;;;;;;;7.50;2.17;;;2.30;99.90;;;;;;5089831;28;20052;-82
2023/03/15 01:22:25;;;;;;;3.42;1.60;;;2.30;99.90;;;;;;5088320;28;20529;-82
2023/03/15 01:24:51;;;;;;;5.45;1.30;;;2.30;99.90;;;;;;5107766;28;20124;-83
2023/03/15 01:27:16;;;;;;;5.63;1.40;;;2.30;99.90;;;;;;5106395;28;20075;-82
2023/03/15 01:29:42;;;;;;;7.00;1.70;;;2.30;99.90;;;;;;5107520;28;20134;-83
2023/03/15 01:32:08;;;;;;;6.25;1.38;;;2.30;99.90;;;;;;5108166;28;20543;-82
2023/03/15 01:34:35;;;;;;;5.85;2.30;;;2.30;99.90;;;;;;5106241;28;20043;-83
2023/03/15 01:37:01;;;;;;;6.13;2.03;;;2.70;99.90;;;;;;5090242;28;20173;-82
2023/03/15 01:39:28;;;;;;;7.13;1.70;;;2.30;99.90;;;;;;5108026;28;20043;-82
2023/03/15 01:41:53;;;;;;;5.15;1.60;;;2.30;99.90;;;;;;5090019;28;20050;-82
2023/03/15 01:44:20;;;;;;;4.43;1.50;;;2.20;99.90;;;;;;5107861;28;20047;-82
2023/03/15 01:46:46;;;;;;;4.18;1.67;;;2.20;99.90;;;;;;5107139;28;20068;-83
2023/03/15 01:49:31;;;;;;;7.50;1.33;;;2.10;99.90;;;;;;5108095;28;20054;-82
2023/03/15 01:52:12;;;;;;;7.10;1.65;;;2.00;99.90;;;;;;5106968;28;20445;-82
2023/03/15 01:54:50;;;;;;;9.98;1.90;;;2.00;99.90;;;;;;5090517;28;20078;-82
2023/03/15 01:57:26;;;;;;;2.80;1.80;;;2.00;99.90;;;;;;5089277;28;20047;-82
2023/03/15 02:00:15;;;;;;;3.33;1.30;;;2.00;99.90;;;;;;5104734;28;20046;-82
2023/03/15 02:02:46;;;;;;;4.68;1.52;;;2.00;99.90;;;;;;5079283;28;20063;-82
2023/03/15 02:05:17;;;;;;;3.33;1.23;;;2.50;99.90;;;;;;5104742;28;20101;-82
2023/03/15 02:07:53;;;;;;;3.40;1.15;;;2.00;99.90;;;;;;5106689;28;20166;-82
2023/03/15 02:10:42;;;;;;;6.22;1.05;;;2.00;99.90;;;;;;5105890;28;20098;-82
2023/03/15 02:13:10;;;;;;;8.25;1.70;;;1.90;99.90;;;;;;5095196;28;20108;-82
2023/03/15 02:15:35;;;;;;;2.03;1.10;;;1.90;99.90;;;;;;5089825;28;20046;-82
2023/03/15 02:18:01;;;;;;;5.25;1.23;;;2.30;99.90;;;;;;5105756;28;20047;-82
2023/03/15 02:20:29;;;;;;;4.95;1.30;;;1.90;99.90;;;;;;5107027;28;20039;-82
2023/03/15 02:23:01;;;;;;;3.22;1.10;;;1.90;99.90;;;;;;5089118;28;20040;-82
2023/03/15 02:25:35;;;;;;;7.90;1.52;;;1.80;99.90;;;;;;5104616;28;20052;-82
2023/03/15 02:28:03;;;;;;;3.38;1.40;;;1.80;99.90;;;;;;5092697;28;20130;-82
2023/03/15 02:30:28;;;;;;;7.78;1.23;;;1.70;99.90;;;;;;5105597;28;20100;-82
2023/03/15 02:32:54;;;;;;;6.35;1.92;;;1.70;99.90;;;;;;5105909;28;20040;-82
2023/03/15 02:35:30;;;;;;;3.83;1.13;;;1.70;99.90;;;;;;5104766;28;20055;-82
2023/03/15 02:37:57;;;;;;;5.25;1.10;;;1.60;99.90;;;;;;5106675;28;20056;-82
2023/03/15 02:40:26;;;;;;;4.82;1.30;;;1.60;99.90;;;;;;5089802;28;20047;-82
2023/03/15 02:42:56;;;;;;;7.85;1.88;;;1.60;99.90;;;;;;5089588;28;20098;-82
2023/03/15 02:45:24;;;;;;;6.53;1.77;;;1.50;99.90;;;;;;5106534;28;20070;-82
2023/03/15 02:47:50;;;;;;;6.75;1.42;;;1.50;99.90;;;;;;5107746;28;20193;-82
2023/03/15 02:50:16;;;;;;;3.70;1.20;;;1.50;99.90;;;;;;5107214;28;20126;-82
2023/03/15 02:52:41;;;;;;;5.55;1.48;;;1.50;99.90;;;;;;5106765;28;20126;-82
2023/03/15 02:55:08;;;;;;;5.82;1.35;;;1.50;99.90;;;;;;5107843;28;20079;-82
2023/03/15 02:57:34;;;;;;;5.13;1.05;;;1.40;99.90;;;;;;5106908;28;20435;-82
2023/03/15 03:00:13;;;;;;;6.72;1.35;;;1.40;99.90;;;;;;5106360;28;20036;-82
2023/03/15 03:02:44;;;;;;;4.47;0.93;;;1.30;99.90;;;;;;5106115;28;20070;-82
2023/03/15 03:05:11;;;;;;;3.78;0.98;;;1.30;99.90;;;;;;5105932;28;20082;-82
2023/03/15 03:07:37;;;;;;;4.43;1.08;;;1.30;99.90;;;;;;5103967;28;20043;-82
2023/03/15 03:10:05;;;;;;;5.50;1.10;;;1.30;99.90;;;;;;5106601;28;20548;-82
2023/03/15 03:12:31;;;;;;;4.70;1.30;;;1.20;99.90;;;;;;5106126;28;20474;-82
2023/03/15 03:14:57;;;;;;;5.78;0.95;;;1.20;99.90;;;;;;5105665;28;20051;-82
2023/03/15 03:17:23;;;;;;;11.88;1.45;;;1.20;99.90;;;;;;5104844;28;20066;-82
2023/03/15 03:19:50;;;;;;;5.10;1.27;;;1.10;99.90;;;;;;5104715;28;20532;-82
2023/03/15 03:22:16;;;;;;;3.90;1.00;;;1.10;99.90;;;;;;5105282;28;20370;-82
2023/03/15 03:24:44;;;;;;;4.90;1.13;;;1.10;99.90;;;;;;5089415;28;20046;-82
2023/03/15 03:27:14;;;;;;;5.35;1.17;;;1.10;99.90;;;;;;5087308;28;20051;-82
2023/03/15 03:29:40;;;;;;;5.30;1.20;;;1.00;99.90;;;;;;5089433;28;20385;-82
2023/03/15 03:32:07;;;;;;;6.18;1.25;;;1.00;99.90;;;;;;5104533;28;20050;-82
2023/03/15 03:34:32;;;;;;;5.65;0.90;;;1.00;99.90;;;;;;5104864;28;20454;-82
2023/03/15 03:36:58;;;;;;;4.03;1.00;;;0.90;99.90;;;;;;5104375;28;20146;-82
2023/03/15 03:39:26;;;;;;;6.63;0.95;;;0.90;99.90;;;;;;5108128;28;20413;-82
2023/03/15 03:41:52;;;;;;;5.72;1.13;;;0.90;99.90;;;;;;5106631;28;20089;-82
2023/03/15 03:44:18;;;;;;;7.15;1.20;;;0.80;99.90;;;;;;5105516;28;20052;-82
2023/03/15 03:46:45;;;;;;;2.33;0.77;;;1.40;99.90;;;;;;5106706;28;20044;-82
2023/03/15 03:49:10;;;;;;;7.88;0.93;;;0.80;99.90;;;;;;5103100;28;20115;-82
2023/03/15 03:51:36;;;;;;;4.75;1.10;;;0.80;99.90;;;;;;5092516;28;20138;-82
2023/03/15 03:54:03;;;;;;;5.05;1.42;;;0.70;99.90;;;;;;5088392;28;20072;-81
2023/03/15 03:56:29;;;;;;;4.55;1.10;;;0.80;99.90;;;;;;5106815;28;20120;-83
2023/03/15 03:58:55;;;;;;;3.40;1.05;;;0.70;99.90;;;;;;5105660;28;20087;-83
2023/03/15 04:01:21;;;;;;;5.03;1.25;;;0.70;99.90;;;;;;5105394;28;20055;-80
2023/03/15 04:03:56;;;;;;;4.50;1.00;;;0.70;99.90;;;;;;5104620;28;20048;-81
2023/03/15 04:06:28;;;;;;;3.40;0.80;;;1.00;99.90;;;;;;5107472;28;20048;-82
2023/03/15 04:08:57;;;;;;;5.53;1.17;;;0.60;99.90;;;;;;5091113;28;20119;-83
2023/03/15 04:11:25;;;;;;;7.70;1.00;;;0.80;99.90;;;;;;5079870;28;20040;-80
2023/03/15 04:13:56;;;;;;;5.63;1.05;;;0.70;99.90;;;;;;5106576;28;20044;-83
2023/03/15 04:16:23;;;;;;;2.78;1.00;;;0.60;99.90;;;;;;5107031;28;20047;-82
2023/03/15 04:18:49;;;;;;;6.05;1.10;;;0.60;99.90;;;;;;5108939;28;20378;-83
2023/03/15 04:21:14;;;;;;;5.43;1.13;;;0.60;99.90;;;;;;5092028;28;20039;-80
2023/03/15 04:23:40;;;;;;;3.38;0.98;;;0.60;99.90;;;;;;5109050;28;20483;-80
2023/03/15 04:26:05;;;;;;;4.78;1.02;;;0.60;99.90;;;;;;5108374;28;20179;-80
2023/03/15 04:28:32;;;;;;;4.07;0.88;;;0.60;99.90;;;;;;5109643;28;20040;-80
2023/03/15 04:30:57;;;;;;;3.20;1.05;;;0.60;99.90;;;;;;5091852;28;20455;-80
2023/03/15 04:33:30;;;;;;;9.50;1.33;;;0.60;99.90;;;;;;5091871;28;20036;-80
2023/03/15 04:35:56;;;;;;;3.97;1.00;;;0.60;99.90;;;;;;5091093;28;20051;-80
2023/03/15 04:38:25;;;;;;;2.75;1.15;;;0.60;99.90;;;;;;5109396;28;20381;-80
2023/03/15 04:40:53;;;;;;;3.75;1.25;;;0.60;99.90;;;;;;5091721;28;20047;-80
2023/03/15 04:43:19;;;;;;;4.97;0.80;;;0.60;99.90;;;;;;5109266;28;20483;-80
2023/03/15 04:45:45;;;;;;;3.85;0.80;;;0.50;99.90;;;;;;5109098;28;20047;-80
2023/03/15 04:48:10;;;;;;;3.90;1.25;;;0.50;99.90;;;;;;5109396;28;20421;-80
2023/03/15 04:50:36;;;;;;;3.47;1.05;;;0.40;99.90;;;;;;5091475;28;20039;-81
2023/03/15 04:53:02;;;;;;;4.88;1.25;;;0.30;99.90;;;;;;5091752;28;20052;-80
2023/03/15 04:55:27;;;;;;;4.72;0.73;;;0.30;99.90;;;;;;5091446;28;20539;-80
2023/03/15 04:57:54;;;;;;;5.70;0.90;;;0.20;99.90;;;;;;5109721;28;20047;-81
2023/03/15 05:00:20;;;;;;;4.85;0.95;;;0.20;99.90;;;;;;5109238;28;20047;-80
2023/03/15 05:02:53;;;;;;;3.95;0.77;;;0.10;99.90;;;;;;5109658;28;20051;-80
2023/03/15 05:05:20;;;;;;;5.07;1.10;;;0.10;99.90;;;;;;5110530;28;20047;-80
2023/03/15 05:07:45;;;;;;;2.92;0.93;;;0.10;99.90;;;;;;5108842;28;20101;-80
2023/03/15 05:10:11;;;;;;;4.18;1.42;;;0.10;99.90;;;;;;5110443;28;20044;-81
2023/03/15 05:12:37;;;;;;;4.97;1.30;;;0.10;99.90;;;;;;5108007;28;20047;-81
2023/03/15 05:15:03;;;;;;;4.25;0.98;;;0.10;99.90;;;;;;5108781;28;20043;-81
2023/03/15 05:17:28;;;;;;;1.95;0.93;;;0.10;99.90;;;;;;5090405;28;20078;-81
2023/03/15 05:19:54;;;;;;;1.95;0.80;;;0.10;99.90;;;;;;5107413;28;20466;-81
2023/03/15 05:22:24;;;;;;;2.40;0.63;;;0.10;99.90;;;;;;5108106;28;20031;-81
2023/03/15 05:24:50;;;;;;;6.03;0.75;;;0.10;99.90;;;;;;5097519;28;20048;-82
2023/03/15 05:27:15;;;;;;;4.65;0.90;;;0.10;99.90;;;;;;5088748;28;20047;-81
2023/03/15 05:29:41;;;;;;;4.40;0.90;;;0.10;99.90;;;;;;5095247;28;20042;-80
2023/03/15 05:32:07;;;;;;;4.15;1.10;;;0.10;99.90;;;;;;5106994;28;20106;-81
2023/03/15 05:34:33;;;;;;;7.28;1.13;;;0.10;99.90;;;;;;5106044;28;20047;-81
2023/03/15 05:36:59;;;;;;;3.67;1.13;;;0.30;99.90;;;;;;5109826;28;20128;-81
2023/03/15 05:39:25;;;;;;;2.95;1.00;;;0.30;99.90;;;;;;5109033;28;20055;-81
2023/03/15 05:41:51;;;;;;;5.63;1.02;;;0.30;99.90;;;;;;5095713;28;20040;-81
2023/03/15 05:44:16;;;;;;;3.40;0.98;;;0.40;99.90;;;;;;5105104;28;20044;-81
2023/03/15 05:46:42;;;;;;;5.07;1.05;;;0.40;99.90;;;;;;5094495;28;20394;-81
2023/03/15 05:49:08;;;;;;;5.25;1.05;;;0.40;99.90;;;;;;5109359;28;20106;-82
2023/03/15 05:51:34;;;;;;;4.15;1.15;;;0.50;99.90;;;;;;5105770;28;20061;-81
2023/03/15 05:54:00;;;;;;;5.32;1.00;;;0.50;99.90;;;;;;5108664;28;20148;-81
2023/03/15 05:56:26;;;;;;;7.00;0.90;;;0.50;99.90;;;;;;5107886;28;20082;-82
2023/03/15 05:58:51;;;;;;;3.30;0.82;;;0.60;99.90;;;;;;5108328;28;20046;-82
2023/03/15 06:01:17;;;;;;;4.57;1.10;;;0.60;99.90;;;;;;5107497;28;20087;-82
2023/03/15 06:03:43;;;;;;;3.67;1.00;;;0.60;99.90;;;;;;5090990;28;20031;-81
2023/03/15 06:06:11;;;;;;;5.10;1.30;;;0.70;99.90;;;;;;5109387;28;20207;-81
2023/03/15 06:08:37;;;;;;;4.93;1.50;;;0.70;99.90;;;;;;5107932;28;20198;-82
2023/03/15 06:11:02;;;;;;;4.05;1.15;;;1.30;99.90;;;;;;5107205;28;20051;-82
2023/03/15 06:13:29;;;;;;;5.72;1.17;;;1.20;99.90;;;;;;5107985;28;20051;-81
2023/03/15 06:15:54;;;;;;;5.72;1.10;;;0.70;99.90;;;;;;5090659;28;20048;-82
2023/03/15 06:18:20;;;;;;;3.95;1.00;;;0.70;99.90;;;;;;5108375;28;20043;-81
2023/03/15 06:20:45;;;;;;;2.55;0.90;;;0.70;99.90;;;;;;5107784;28;20079;-82
2023/03/15 06:23:11;;;;;;;3.00;1.27;;;0.60;99.90;;;;;;5108065;28;20050;-82
2023/03/15 06:25:36;;;;;;;3.40;1.10;;;0.60;99.90;;;;;;5107461;28;20072;-82
2023/03/15 06:28:02;;;;;;;2.38;0.85;;;0.70;99.90;;;;;;5091470;28;20131;-82
2023/03/15 06:30:28;;;;;;;5.32;1.10;;;0.70;99.90;;;;;;5106717;28;20043;-82
2023/03/15 06:32:54;;;;;;;2.58;0.85;;;0.70;99.90;;;;;;5109188;28;20435;-82
2023/03/15 06:35:19;;;;;;;4.38;1.05;;;0.70;99.90;;;;;;5090004;28;20400;-82
2023/03/15 06:37:46;;;;;;;5.07;1.02;;;0.70;99.90;;;;;;5106989;28;20409;-82
2023/03/15 06:40:12;;;;;;;2.67;1.15;;;0.70;99.90;;;;;;5105803;28;20527;-82
2023/03/15 06:42:40;;;;;;;3.92;0.80;;;0.70;99.90;;;;;;5089476;28;20044;-82
2023/03/15 06:45:07;;;;;;;3.13;0.70;;;0.70;99.90;;;;;;5107142;28;20044;-81
2023/03/15 06:47:33;;;;;;;5.78;1.20;;;0.70;99.90;;;;;;5090108;28;20123;-82
2023/03/15 06:49:59;;;;;;;2.28;0.98;;;0.80;99.90;;;;;;5107669;28;20089;-82
2023/03/15 06:52:24;;;;;;;3.15;1.10;;;0.80;99.90;;;;;;5105306;28;20035;-82
2023/03/15 06:54:50;;;;;;;4.15;0.90;;;0.80;99.90;;;;;;5106709;28;20171;-82
2023/03/15 06:57:15;;;;;;;4.22;0.70;;;1.00;99.90;;;;;;5106611;28;20064;-82
2023/03/15 06:59:41;;;;;;;5.47;1.40;;;1.00;99.90;;;;;;5106806;28;20046;-82
2023/03/15 07:02:13;;;;;;;4.20;1.00;;;1.10;99.90;;;;;;5090264;28;20039;-82
2023/03/15 07:04:39;;;;;;;3.28;0.90;;;1.20;99.90;;;;;;5108432;28;20031;-82
2023/03/15 07:07:04;;;;;;;4.30;1.15;;;1.30;99.90;;;;;;5090230;28;20058;-82
2023/03/15 07:09:30;;;;;;;5.32;1.40;;;1.30;99.90;;;;;;5107463;28;20112;-82
2023/03/15 07:11:55;;;;;;;1.98;0.80;;;1.40;99.90;;;;;;5107965;28;20187;-82
2023/03/15 07:14:21;;;;;;;3.13;0.98;;;1.50;99.90;;;;;;5089263;28;20036;-82
2023/03/15 07:16:47;;;;;;;1.80;0.82;;;1.50;99.90;;;;;;5106903;28;20043;-82
2023/03/15 07:19:13;;;;;;;2.15;1.10;;;1.60;99.90;;;;;;5107007;28;20404;-82
2023/03/15 07:21:39;;;;;;;5.97;1.58;;;1.70;99.90;;;;;;5089097;28;20134;-82
2023/03/15 07:24:05;;;;;;;6.20;1.30;;;1.80;99.90;;;;;;5107147;28;20047;-82
2023/03/15 07:26:30;;;;;;;7.53;1.40;;;1.90;99.90;;;;;;5106653;28;20039;-82
2023/03/15 07:28:56;;;;;;;4.30;1.10;;;2.00;99.90;;;;;;5106289;28;20039;-82
2023/03/15 07:31:22;;;;;;;5.20;1.20;;;2.10;99.90;;;;;;5106207;28;20055;-82
2023/03/15 07:33:47;;;;;;;3.17;1.02;;;2.20;99.90;;;;;;5106354;28;20470;-82
2023/03/15 07:36:13;;;;;;;4.78;1.20;;;2.30;99.90;;;;;;5105900;28;20052;-82
2023/03/15 07:38:38;;;;;;;6.55;1.40;;;2.40;99.90;;;;;;5106221;28;20134;-82
2023/03/15 07:41:06;;;;;;;4.22;1.60;;;2.50;99.90;;;;;;5088982;28;20035;-82
2023/03/15 07:43:32;;;;;;;5.70;1.30;;;2.60;99.90;;;;;;5105208;28;20084;-82
2023/03/15 07:45:58;;;;;;;4.03;1.58;;;2.70;99.90;;;;;;5106654;28;20062;-82
2023/03/15 07:48:24;;;;;;;8.68;1.77;;;2.80;99.90;;;;;;5106048;28;20047;-83
2023/03/15 07:50:49;;;;;;;2.72;1.20;;;2.90;99.90;;;;;;5106138;28;20104;-83
2023/03/15 07:53:15;;;;;;;3.10;1.33;;;3.00;99.90;;;;;;5105466;28;20474;-83
2023/03/15 07:55:40;;;;;;;4.15;1.30;;;3.10;99.90;;;;;;5106799;28;20048;-82
2023/03/15 07:58:06;;;;;;;4.70;1.58;;;3.10;99.90;;;;;;5105574;28;20569;-83
2023/03/15 08:00:31;;;;;;;3.13;1.27;;;3.30;99.90;;;;;;5105085;28;20040;-83
2023/03/15 08:02:57;;;;;;;4.70;2.33;;;3.30;99.90;;;;;;5088590;28;20134;-82
2023/03/15 08:05:23;;;;;;;4.93;1.60;;;3.40;99.90;;;;;;5091326;28;20075;-84
2023/03/15 08:07:49;;;;;;;5.38;1.35;;;3.50;99.90;;;;;;5085288;28;20127;-84
2023/03/15 08:10:16;;;;;;;5.07;1.40;;;3.60;99.90;;;;;;5085758;28;20054;-84
2023/03/15 08:12:43;;;;;;;5.75;1.73;;;3.70;99.90;;;;;;5085183;28;20048;-84
2023/03/15 08:15:13;;;;;;;4.22;1.50;;;3.80;99.90;;;;;;5085684;28;20115;-83
2023/03/15 08:17:40;;;;;;;5.13;1.58;;;3.90;99.90;;;;;;5086542;28;20048;-86
2023/03/15 08:20:13;;;;;;;6.18;1.40;;;4.00;99.90;;;;;;5086122;28;20058;-83
2023/03/15 08:22:43;;;;;;;4.18;1.25;;;4.00;99.90;;;;;;5084674;28;20059;-84
2023/03/15 08:25:10;;;;;;;6.45;2.17;;;4.10;99.90;;;;;;5085193;28;20048;-83
2023/03/15 08:27:39;;;;;;;4.45;1.40;;;4.20;99.90;;;;;;5086384;28;20052;-83
2023/03/15 08:30:05;;;;;;;5.93;1.75;;;4.30;99.90;;;;;;5085647;28;20501;-83
2023/03/15 08:32:31;;;;;;;5.28;1.67;;;4.40;99.90;;;;;;5085777;28;20048;-83
2023/03/15 08:34:56;;;;;;;7.78;1.42;;;4.50;99.90;;;;;;5092607;28;20051;-83
2023/03/15 08:37:22;;;;;;;4.10;1.50;;;4.60;99.90;;;;;;5104336;28;20052;-82
2023/03/15 08:39:48;;;;;;;5.18;1.27;;;4.60;99.90;;;;;;5105455;28;20116;-83
2023/03/15 08:42:14;;;;;;;4.55;1.58;;;4.70;99.90;;;;;;5105708;28;20070;-83
2023/03/15 08:44:40;;;;;;;4.57;1.58;;;4.80;99.90;;;;;;5107682;28;20711;-84
2023/03/15 08:47:09;;;;;;;6.30;1.63;;;4.90;99.90;;;;;;5107816;28;20051;-83
2023/03/15 08:49:35;;;;;;;7.15;1.77;;;4.90;99.90;;;;;;5088964;28;20048;-84
2023/03/15 08:52:03;;;;;;;1.90;0.98;;;5.00;99.90;;;;;;5105404;28;20059;-83
2023/03/15 08:54:30;;;;;;;7.82;1.45;;;5.50;99.90;;;;;;5089448;28;20047;-82
2023/03/15 08:56:56;;;;;;;5.88;1.38;;;5.40;99.90;;;;;;5111459;28;20048;-81
2023/03/15 08:59:21;;;;;;;4.15;1.45;;;5.60;99.90;;;;;;5109413;28;20065;-82
2023/03/15 09:01:47;;;;;;;5.70;1.23;;;5.80;99.90;;;;;;5108530;28;20040;-83
2023/03/15 09:04:13;;;;;;;7.35;1.20;;;5.80;99.90;;;;;;5105248;28;20066;-83
2023/03/15 09:06:38;;;;;;;8.10;1.90;;;5.80;99.90;;;;;;5088208;28;20040;-82
2023/03/15 09:09:04;;;;;;;5.15;1.42;;;5.90;99.90;;;;;;5088898;28;20040;-83
2023/03/15 09:11:30;;;;;;;4.07;1.30;;;6.00;99.90;;;;;;5088127;28;20427;-83
2023/03/15 09:13:56;;;;;;;4.60;1.67;;;6.00;99.90;;;;;;5071202;28;20074;-82
2023/03/15 09:16:21;;;;;;;2.63;0.80;;;6.00;99.90;;;;;;5088381;28;20059;-82
2023/03/15 09:18:47;;;;;;;4.65;1.00;;;6.00;99.90;;;;;;5088937;28;20147;-82
2023/03/15 09:21:12;;;;;;;3.65;1.13;;;6.00;99.90;;;;;;5088882;28;20406;-82
2023/03/15 09:23:38;;;;;;;3.92;1.02;;;5.90;99.90;;;;;;5087497;28;20079;-83
2023/03/15 09:26:03;;;;;;;5.70;1.30;;;6.00;99.90;;;;;;5089598;28;20057;-83
2023/03/15 09:28:29;;;;;;;4.82;2.15;;;6.00;99.90;;;;;;5088236;28;20050;-82
2023/03/15 09:30:55;;;;;;;4.05;1.20;;;6.20;99.90;;;;;;5089920;28;20054;-83
2023/03/15 09:33:21;;;;;;;2.03;1.10;;;6.20;99.90;;;;;;5090146;28;20134;-83
2023/03/15 09:35:50;;;;;;;5.10;1.58;;;5.90;99.90;;;;;;5104758;28;20052;-82
2023/03/15 09:38:16;;;;;;;5.40;1.35;;;6.30;99.90;;;;;;5110451;28;20043;-83
2023/03/15 09:40:44;;;;;;;6.40;1.50;;;6.40;99.90;;;;;;5090982;28;20524;-82
2023/03/15 09:43:31;;;;;;;4.18;1.20;;;6.30;99.90;;;;;;5109831;28;20492;-82
2023/03/15 09:46:29;;;;;;;2.67;1.02;;;6.40;99.90;;;;;;5091122;28;20080;-82
2023/03/15 09:49:23;;;;;;;2.78;0.95;;;6.40;99.90;;;;;;5091416;28;20047;-83
2023/03/15 09:51:56;;;;;;;2.80;0.90;;;6.50;99.90;;;;;;5090121;28;20063;-83
2023/03/15 09:54:28;;;;;;;1.60;0.90;;;6.60;99.90;;;;;;5108884;28;20046;-83
2023/03/15 09:57:01;;;;;;;4.55;1.40;;;6.60;99.90;;;;;;5090378;28;20137;-84
2023/03/15 09:59:41;;;;;;;2.50;1.00;;;6.70;99.90;;;;;;5074115;28;20051;-83
2023/03/15 10:02:26;;;;;;;4.10;0.90;;;6.80;99.90;;;;;;5091266;28;20090;-83
2023/03/15 10:05:00;;;;;;;3.65;1.05;;;6.90;99.90;;;;;;5084850;27;20176;-82
2023/03/15 10:07:25;;;;;;;8.85;1.40;;;7.10;99.90;;;;;;5129411;27;20085;-81
2023/03/15 10:09:52;;;;;;;2.30;1.00;;;7.20;99.90;;;;;;5111282;27;20062;-82
2023/03/15 10:12:28;;;;;;;4.10;0.90;;;7.20;99.90;;;;;;5108546;27;20130;-81
2023/03/15 10:15:13;;;;;;;4.75;1.25;;;7.20;99.90;;;;;;5129500;27;20720;-82
2023/03/15 10:18:09;;;;;;;2.42;1.00;;;7.30;99.90;;;;;;5127979;27;20133;-81
2023/03/15 10:20:43;;;;;;;6.88;1.60;;;7.20;99.90;;;;;;5105083;27;20507;-81
2023/03/15 10:23:12;;;;;;;3.83;0.98;;;7.40;99.90;;;;;;5110217;27;20043;-80
2023/03/15 10:25:38;;;;;;;4.18;0.88;;;7.20;99.90;;;;;;5129856;27;20168;-81
2023/03/15 10:28:11;;;;;;;4.07;1.10;;;7.30;99.90;;;;;;5110518;27;20062;-82
2023/03/15 10:30:39;;;;;;;3.42;1.15;;;7.20;99.90;;;;;;5109143;27;20080;-81
2023/03/15 10:33:23;;;;;;;5.47;1.10;;;7.50;99.90;;;;;;5109922;27;20076;-82
2023/03/15 10:35:49;;;;;;;3.53;1.00;;;7.50;99.90;;;;;;5109934;27;20055;-82
2023/03/15 10:38:20;;;;;;;5.68;1.10;;;7.60;99.90;;;;;;5128717;27;20062;-82
2023/03/15 10:40:47;;;;;;;2.72;1.02;;;7.70;99.90;;;;;;5109394;27;20814;-82
2023/03/15 10:43:21;;;;;;;5.40;0.80;;;7.60;99.90;;;;;;5110938;27;20046;-81
2023/03/15 10:45:59;;;;;;;5.40;1.48;;;7.50;99.90;;;;;;5110478;27;20050;-82
2023/03/15 10:48:25;;;;;;;3.65;1.13;;;7.50;99.90;;;;;;5094655;27;20047;-82
2023/03/15 10:50:50;;;;;;;4.22;0.88;;;7.40;99.90;;;;;;5111261;27;20062;-82
2023/03/15 10:53:24;;;;;;;4.28;0.85;;;7.40;99.90;;;;;;5093181;27;20043;-82
2023/03/15 10:56:19;;;;;;;6.30;1.20;;;7.30;99.90;;;;;;5107613;27;20471;-81
2023/03/15 10:58:47;;;;;;;3.10;0.85;;;7.40;99.90;;;;;;5092603;27;20043;-82
2023/03/15 11:01:31;;;;;;;4.68;0.98;;;7.40;99.90;;;;;;5094494;27;20058;-81
2023/03/15 11:04:06;;;;;;;1.95;0.93;;;7.50;99.90;;;;;;5110999;27;20430;-81
2023/03/15 11:06:45;;;;;;;2.65;0.90;;;7.70;98.30;;;;;;5110918;27;20054;-81
2023/03/15 11:09:17;;;;;;;6.75;1.50;;;7.50;99.90;;;;;;5092099;27;20088;-82
2023/03/15 11:11:59;;;;;;;1.65;0.80;;;7.50;99.90;;;;;;5093003;27;20057;-81
2023/03/15 11:14:46;;;;;;;5.28;1.00;;;7.60;99.90;;;;;;5090779;27;20074;-81
2023/03/15 11:17:19;;;;;;;5.95;1.10;;;7.60;98.80;;;;;;5128301;27;20043;-82
2023/03/15 11:20:19;;;;;;;1.88;0.82;;;7.60;99.90;;;;;;5129345;27;20047;-81
2023/03/15 11:22:44;;;;;;;4.90;0.85;;;7.70;88.60;;;;;;5089335;27;20043;-81
2023/03/15 11:25:14;;;;;;;4.13;1.00;;;8.10;99.90;;;;;;5129203;27;20046;-82
2023/03/15 11:27:42;;;;;;;3.90;1.10;;;7.70;99.90;;;;;;5093725;27;20133;-81
2023/03/15 11:30:15;;;;;;;5.72;0.95;;;7.90;99.90;;;;;;5129172;27;20043;-82
2023/03/15 11:32:43;;;;;;;4.13;1.02;;;8.00;99.90;;;;;;5092287;27;20043;-82
2023/03/15 11:35:23;;;;;;;5.05;0.82;;;8.00;99.90;;;;;;5110566;28;20062;-82
2023/03/15 11:38:16;;;;;;;3.20;0.85;;;8.00;96.50;;;;;;5093583;27;20141;-82
2023/03/15 11:40:46;;;;;;;3.38;0.95;;;7.90;72.10;;;;;;5101498;28;20063;-81
2023/03/15 11:43:29;;;;;;;2.78;0.82;;;8.10;99.90;;;;;;5109502;28;20051;-81
2023/03/15 11:46:03;;;;;;;1.13;0.68;;;8.20;98.20;;;;;;5107436;28;20131;-82
2023/03/15 11:49:08;;;;;;;3.92;1.00;;;8.30;99.90;;;;;;5089503;28;20366;-81
2023/03/15 11:51:36;;;;;;;5.57;1.02;;;8.80;94.30;;;;;;5089953;28;20413;-81
2023/03/15 11:54:11;;;;;;;4.65;0.90;;;8.30;99.90;;;;;;5097587;28;20092;-81
2023/03/15 11:56:43;;;;;;;3.50;0.90;;;8.60;99.90;;;;;;5109982;28;20051;-82
2023/03/15 11:59:12;;;;;;;1.98;0.70;;;8.60;97.00;;;;;;5111024;28;20679;-82
2023/03/15 12:02:08;;;;;;;4.35;1.15;;;8.70;99.90;;;;;;5110023;28;20031;-82
2023/03/15 12:04:34;;;;;;;4.15;1.25;;;8.80;92.00;;;;;;5095808;28;20147;-83
2023/03/15 12:07:02;;;;;;;3.05;1.00;;;8.80;99.90;;;;;;5092770;28;20125;-82
2023/03/15 12:09:31;;;;;;;3.55;0.90;;;9.00;99.90;;;;;;5110541;28;20047;-82
2023/03/15 12:12:22;;;;;;;4.80;1.02;;;9.00;98.70;;;;;;5128759;28;20074;-83
2023/03/15 12:15:06;;;;;;;4.03;1.10;;;8.90;71.10;;;;;;5109260;28;20043;-82
2023/03/15 12:17:41;;;;;;;3.65;1.00;;;8.90;96.70;;;;;;5092403;28;20047;-82
2023/03/15 12:20:16;;;;;;;6.18;1.15;;;8.90;99.70;;;;;;5091861;28;20077;-83
2023/03/15 12:23:04;;;;;;;4.80;1.00;;;8.90;98.40;;;;;;5108722;28;20484;-82
2023/03/15 12:26:01;;;;;;;2.28;0.98;;;8.90;96.90;;;;;;5109221;28;20854;-82
2023/03/15 12:28:30;;;;;;;3.35;1.20;;;9.00;94.20;;;;;;5085339;27;20059;-82
2023/03/15 12:31:00;;;;;;;4.05;0.90;;;9.10;94.00;;;;;;5113584;27;20047;-81
2023/03/15 12:33:27;;;;;;;3.17;1.23;;;9.10;97.90;;;;;;5113482;27;20092;-81
2023/03/15 12:36:09;;;;;;;3.00;1.27;;;9.10;99.50;;;;;;5109579;28;20171;-82
2023/03/15 12:38:40;;;;;;;3.63;1.40;;;9.20;93.10;;;;;;5093412;28;20040;-81
2023/03/15 12:41:28;;;;;;;2.97;0.90;;;9.10;99.10;;;;;;5109816;28;20119;-82
2023/03/15 12:44:32;;;;;;;3.08;0.90;;;9.20;99.90;;;;;;5110160;28;20285;-82
2023/03/15 12:47:03;;;;;;;4.43;0.90;;;9.10;68.50;;;;;;5109589;28;20054;-82
2023/03/15 12:49:37;;;;;;;3.53;0.80;;;9.00;88.90;;;;;;5111693;28;20548;-82
2023/03/15 12:52:15;;;;;;;2.47;0.98;;;9.00;87.20;;;;;;5110220;28;20044;-82
2023/03/15 12:54:43;;;;;;;3.47;0.90;;;8.90;79.30;;;;;;5109633;28;20047;-82
2023/03/15 12:57:16;;;;;;;2.38;0.90;;;9.00;94.70;;;;;;5108257;28;20087;-82
2023/03/15 12:59:48;;;;;;;4.20;1.17;;;9.00;84.60;;;;;;5110464;28;20048;-81
2023/03/15 13:02:33;;;;;;;16.10;3.20;;;9.10;94.10;;;;;;5093423;28;20051;-82
2023/03/15 13:05:08;;;;;;;1.48;0.80;;;9.10;71.60;;;;;;5093062;28;20285;-81
2023/03/15 13:07:54;;;;;;;5.72;0.90;;;9.10;71.70;;;;;;5109898;28;20052;-81
2023/03/15 13:10:33;;;;;;;3.88;0.90;;;9.10;72.50;;;;;;5109718;28;20047;-81